sensor_id;sensor_type;location;lat;lon;timestamp;pressure;altitude;pressure_sealevel;temperature
8362;BMP180;4218;48.326;14.304;2023-07-31T00:01:55;98440.00;;;15.60
8362;BMP180;4218;48.326;14.304;2023-07-31T00:04:20;98447.00;;;15.60
8362;BMP180;4218;48.326;14.304;2023-07-31T00:06:46;98447.00;;;15.60
8362;BMP180;4218;48.326;14.304;2023-07-31T00:09:11;98447.00;;;15.50
8362;BMP180;4218;48.326;14.304;2023-07-31T00:11:36;98446.00;;;15.40
8362;BMP180;4218;48.326;14.304;2023-07-31T00:14:02;98448.00;;;15.30
8362;BMP180;4218;48.326;14.304;2023-07-31T00:16:27;98451.00;;;15.30
8362;BMP180;4218;48.326;14.304;2023-07-31T00:18:53;98453.00;;;15.20
8362;BMP180;4218;48.326;14.304;2023-07-31T00:21:18;98464.00;;;15.10
8362;BMP180;4218;48.326;14.304;2023-07-31T00:23:43;98465.00;;;15.20
8362;BMP180;4218;48.326;14.304;2023-07-31T00:26:09;98462.00;;;15.30
8362;BMP180;4218;48.326;14.304;2023-07-31T00:28:34;98469.00;;;15.20
8362;BMP180;4218;48.326;14.304;2023-07-31T00:30:59;98458.00;;;15.20
8362;BMP180;4218;48.326;14.304;2023-07-31T00:33:25;98470.00;;;15.10
8362;BMP180;4218;48.326;14.304;2023-07-31T00:35:50;98473.00;;;15.20
8362;BMP180;4218;48.326;14.304;2023-07-31T00:38:15;98468.00;;;15.00
8362;BMP180;4218;48.326;14.304;2023-07-31T00:40:41;98470.00;;;15.00
8362;BMP180;4218;48.326;14.304;2023-07-31T00:43:06;98471.00;;;15.10
8362;BMP180;4218;48.326;14.304;2023-07-31T00:45:32;98473.00;;;15.10
8362;BMP180;4218;48.326;14.304;2023-07-31T00:47:58;98479.00;;;15.10
8362;BMP180;4218;48.326;14.304;2023-07-31T00:50:26;98467.00;;;15.10
8362;BMP180;4218;48.326;14.304;2023-07-31T00:52:52;98471.00;;;15.10
8362;BMP180;4218;48.326;14.304;2023-07-31T00:55:17;98464.00;;;15.00
8362;BMP180;4218;48.326;14.304;2023-07-31T00:57:45;98473.00;;;15.00
8362;BMP180;4218;48.326;14.304;2023-07-31T01:00:10;98470.00;;;15.00
8362;BMP180;4218;48.326;14.304;2023-07-31T01:02:36;98475.00;;;15.00
8362;BMP180;4218;48.326;14.304;2023-07-31T01:05:03;98471.00;;;15.10
8362;BMP180;4218;48.326;14.304;2023-07-31T01:07:43;98469.00;;;15.10
8362;BMP180;4218;48.326;14.304;2023-07-31T01:10:16;98475.00;;;15.00
8362;BMP180;4218;48.326;14.304;2023-07-31T01:12:46;98475.00;;;15.00
8362;BMP180;4218;48.326;14.304;2023-07-31T01:15:13;98465.00;;;15.00
8362;BMP180;4218;48.326;14.304;2023-07-31T01:17:41;98478.00;;;15.00
8362;BMP180;4218;48.326;14.304;2023-07-31T01:20:16;98468.00;;;15.10
8362;BMP180;4218;48.326;14.304;2023-07-31T01:23:08;98463.00;;;15.30
8362;BMP180;4218;48.326;14.304;2023-07-31T01:26:03;98466.00;;;15.20
8362;BMP180;4218;48.326;14.304;2023-07-31T01:31:10;98461.00;;;15.10
8362;BMP180;4218;48.326;14.304;2023-07-31T01:33:36;98457.00;;;15.30
8362;BMP180;4218;48.326;14.304;2023-07-31T01:36:02;98453.00;;;15.10
8362;BMP180;4218;48.326;14.304;2023-07-31T01:38:29;98450.00;;;14.80
8362;BMP180;4218;48.326;14.304;2023-07-31T01:40:55;98447.00;;;14.80
8362;BMP180;4218;48.326;14.304;2023-07-31T01:43:20;98442.00;;;14.80
8362;BMP180;4218;48.326;14.304;2023-07-31T01:45:46;98441.00;;;14.70
8362;BMP180;4218;48.326;14.304;2023-07-31T01:48:11;98437.00;;;14.60
8362;BMP180;4218;48.326;14.304;2023-07-31T01:50:36;98437.00;;;14.50
8362;BMP180;4218;48.326;14.304;2023-07-31T01:53:02;98446.00;;;14.40
8362;BMP180;4218;48.326;14.304;2023-07-31T01:55:27;98443.00;;;14.30
8362;BMP180;4218;48.326;14.304;2023-07-31T01:57:53;98440.00;;;14.30
8362;BMP180;4218;48.326;14.304;2023-07-31T02:00:18;98431.00;;;14.30
8362;BMP180;4218;48.326;14.304;2023-07-31T02:02:43;98449.00;;;14.30
8362;BMP180;4218;48.326;14.304;2023-07-31T02:05:09;98450.00;;;14.30
8362;BMP180;4218;48.326;14.304;2023-07-31T02:07:34;98435.00;;;14.20
8362;BMP180;4218;48.326;14.304;2023-07-31T02:10:00;98436.00;;;14.10
8362;BMP180;4218;48.326;14.304;2023-07-31T02:12:25;98440.00;;;14.00
8362;BMP180;4218;48.326;14.304;2023-07-31T02:14:50;98440.00;;;13.90
8362;BMP180;4218;48.326;14.304;2023-07-31T02:17:16;98438.00;;;13.90
8362;BMP180;4218;48.326;14.304;2023-07-31T02:19:41;98447.00;;;13.90
8362;BMP180;4218;48.326;14.304;2023-07-31T02:22:06;98444.00;;;13.80
8362;BMP180;4218;48.326;14.304;2023-07-31T02:24:32;98441.00;;;13.80
8362;BMP180;4218;48.326;14.304;2023-07-31T02:26:57;98441.00;;;13.80
8362;BMP180;4218;48.326;14.304;2023-07-31T02:29:22;98450.00;;;13.70
8362;BMP180;4218;48.326;14.304;2023-07-31T02:31:48;98452.00;;;13.70
8362;BMP180;4218;48.326;14.304;2023-07-31T02:34:13;98444.00;;;13.70
8362;BMP180;4218;48.326;14.304;2023-07-31T02:36:39;98444.00;;;13.70
8362;BMP180;4218;48.326;14.304;2023-07-31T02:39:04;98446.00;;;13.70
8362;BMP180;4218;48.326;14.304;2023-07-31T02:41:30;98444.00;;;13.70
8362;BMP180;4218;48.326;14.304;2023-07-31T02:43:55;98436.00;;;13.60
8362;BMP180;4218;48.326;14.304;2023-07-31T02:46:20;98440.00;;;13.50
8362;BMP180;4218;48.326;14.304;2023-07-31T02:48:49;98442.00;;;13.40
8362;BMP180;4218;48.326;14.304;2023-07-31T02:51:14;98441.00;;;13.40
8362;BMP180;4218;48.326;14.304;2023-07-31T02:53:40;98440.00;;;13.40
8362;BMP180;4218;48.326;14.304;2023-07-31T02:56:05;98443.00;;;13.40
8362;BMP180;4218;48.326;14.304;2023-07-31T02:58:30;98443.00;;;13.30
8362;BMP180;4218;48.326;14.304;2023-07-31T03:00:58;98440.00;;;13.20
8362;BMP180;4218;48.326;14.304;2023-07-31T03:03:23;98442.00;;;13.20
8362;BMP180;4218;48.326;14.304;2023-07-31T03:05:49;98439.00;;;13.20
8362;BMP180;4218;48.326;14.304;2023-07-31T03:08:14;98441.00;;;13.10
8362;BMP180;4218;48.326;14.304;2023-07-31T03:10:39;98445.00;;;13.20
8362;BMP180;4218;48.326;14.304;2023-07-31T03:13:05;98450.00;;;13.30
8362;BMP180;4218;48.326;14.304;2023-07-31T03:15:30;98451.00;;;13.30
8362;BMP180;4218;48.326;14.304;2023-07-31T03:17:55;98448.00;;;13.30
8362;BMP180;4218;48.326;14.304;2023-07-31T03:20:21;98441.00;;;13.30
8362;BMP180;4218;48.326;14.304;2023-07-31T03:22:46;98445.00;;;13.20
8362;BMP180;4218;48.326;14.304;2023-07-31T03:25:11;98439.00;;;13.10
8362;BMP180;4218;48.326;14.304;2023-07-31T03:27:37;98445.00;;;13.00
8362;BMP180;4218;48.326;14.304;2023-07-31T03:30:03;98453.00;;;13.00
8362;BMP180;4218;48.326;14.304;2023-07-31T03:32:29;98450.00;;;13.00
8362;BMP180;4218;48.326;14.304;2023-07-31T03:34:54;98459.00;;;13.00
8362;BMP180;4218;48.326;14.304;2023-07-31T03:37:19;98461.00;;;13.00
8362;BMP180;4218;48.326;14.304;2023-07-31T03:39:45;98467.00;;;13.00
8362;BMP180;4218;48.326;14.304;2023-07-31T03:42:10;98461.00;;;13.00
8362;BMP180;4218;48.326;14.304;2023-07-31T03:44:35;98458.00;;;13.00
8362;BMP180;4218;48.326;14.304;2023-07-31T03:47:01;98463.00;;;13.00
8362;BMP180;4218;48.326;14.304;2023-07-31T03:49:29;98465.00;;;13.00
8362;BMP180;4218;48.326;14.304;2023-07-31T03:51:54;98456.00;;;13.00
8362;BMP180;4218;48.326;14.304;2023-07-31T03:54:19;98454.00;;;13.10
8362;BMP180;4218;48.326;14.304;2023-07-31T03:56:45;98459.00;;;13.10
8362;BMP180;4218;48.326;14.304;2023-07-31T03:59:10;98452.00;;;13.20
8362;BMP180;4218;48.326;14.304;2023-07-31T04:01:35;98457.00;;;13.20
8362;BMP180;4218;48.326;14.304;2023-07-31T04:04:01;98454.00;;;13.20
8362;BMP180;4218;48.326;14.304;2023-07-31T04:06:26;98450.00;;;13.20
8362;BMP180;4218;48.326;14.304;2023-07-31T04:08:52;98465.00;;;13.10
8362;BMP180;4218;48.326;14.304;2023-07-31T04:11:17;98450.00;;;13.10
8362;BMP180;4218;48.326;14.304;2023-07-31T04:13:42;98455.00;;;13.10
8362;BMP180;4218;48.326;14.304;2023-07-31T04:16:08;98447.00;;;13.20
8362;BMP180;4218;48.326;14.304;2023-07-31T04:18:33;98452.00;;;13.20
8362;BMP180;4218;48.326;14.304;2023-07-31T04:20:59;98447.00;;;13.20
8362;BMP180;4218;48.326;14.304;2023-07-31T04:23:25;98446.00;;;13.40
8362;BMP180;4218;48.326;14.304;2023-07-31T04:25:50;98450.00;;;13.40
8362;BMP180;4218;48.326;14.304;2023-07-31T04:28:16;98452.00;;;13.40
8362;BMP180;4218;48.326;14.304;2023-07-31T04:30:41;98450.00;;;13.30
8362;BMP180;4218;48.326;14.304;2023-07-31T04:33:06;98449.00;;;13.30
8362;BMP180;4218;48.326;14.304;2023-07-31T04:35:32;98450.00;;;13.30
8362;BMP180;4218;48.326;14.304;2023-07-31T04:37:57;98444.00;;;13.20
8362;BMP180;4218;48.326;14.304;2023-07-31T04:40:23;98449.00;;;13.20
8362;BMP180;4218;48.326;14.304;2023-07-31T04:42:48;98453.00;;;13.20
8362;BMP180;4218;48.326;14.304;2023-07-31T04:45:14;98449.00;;;13.10
8362;BMP180;4218;48.326;14.304;2023-07-31T04:47:39;98447.00;;;13.10
8362;BMP180;4218;48.326;14.304;2023-07-31T04:50:05;98449.00;;;13.20
8362;BMP180;4218;48.326;14.304;2023-07-31T04:52:31;98456.00;;;13.20
8362;BMP180;4218;48.326;14.304;2023-07-31T04:54:56;98459.00;;;13.20
8362;BMP180;4218;48.326;14.304;2023-07-31T04:57:21;98463.00;;;13.30
8362;BMP180;4218;48.326;14.304;2023-07-31T04:59:47;98465.00;;;13.30
8362;BMP180;4218;48.326;14.304;2023-07-31T05:02:12;98453.00;;;13.40
8362;BMP180;4218;48.326;14.304;2023-07-31T05:04:38;98450.00;;;13.40
8362;BMP180;4218;48.326;14.304;2023-07-31T05:07:04;98457.00;;;13.50
8362;BMP180;4218;48.326;14.304;2023-07-31T05:09:29;98456.00;;;13.50
8362;BMP180;4218;48.326;14.304;2023-07-31T05:11:55;98455.00;;;13.50
8362;BMP180;4218;48.326;14.304;2023-07-31T05:14:20;98453.00;;;13.60
8362;BMP180;4218;48.326;14.304;2023-07-31T05:16:45;98451.00;;;13.60
8362;BMP180;4218;48.326;14.304;2023-07-31T05:19:11;98460.00;;;13.80
8362;BMP180;4218;48.326;14.304;2023-07-31T05:21:36;98454.00;;;13.90
8362;BMP180;4218;48.326;14.304;2023-07-31T05:24:02;98457.00;;;14.00
8362;BMP180;4218;48.326;14.304;2023-07-31T05:26:28;98454.00;;;14.20
8362;BMP180;4218;48.326;14.304;2023-07-31T05:28:53;98455.00;;;14.40
8362;BMP180;4218;48.326;14.304;2023-07-31T05:31:18;98454.00;;;14.40
8362;BMP180;4218;48.326;14.304;2023-07-31T05:33:44;98450.00;;;14.60
8362;BMP180;4218;48.326;14.304;2023-07-31T05:36:09;98449.00;;;14.60
8362;BMP180;4218;48.326;14.304;2023-07-31T05:38:34;98457.00;;;14.70
8362;BMP180;4218;48.326;14.304;2023-07-31T05:41:00;98456.00;;;14.80
8362;BMP180;4218;48.326;14.304;2023-07-31T05:43:25;98451.00;;;15.00
8362;BMP180;4218;48.326;14.304;2023-07-31T05:45:51;98445.00;;;15.10
8362;BMP180;4218;48.326;14.304;2023-07-31T05:48:16;98454.00;;;15.30
8362;BMP180;4218;48.326;14.304;2023-07-31T05:50:43;98448.00;;;15.50
8362;BMP180;4218;48.326;14.304;2023-07-31T05:53:08;98436.00;;;15.60
8362;BMP180;4218;48.326;14.304;2023-07-31T05:55:35;98446.00;;;15.80
8362;BMP180;4218;48.326;14.304;2023-07-31T05:58:00;98449.00;;;16.00
8362;BMP180;4218;48.326;14.304;2023-07-31T06:00:26;98446.00;;;16.00
8362;BMP180;4218;48.326;14.304;2023-07-31T06:02:52;98442.00;;;16.00
8362;BMP180;4218;48.326;14.304;2023-07-31T06:05:18;98452.00;;;16.10
8362;BMP180;4218;48.326;14.304;2023-07-31T06:07:43;98444.00;;;16.10
8362;BMP180;4218;48.326;14.304;2023-07-31T06:10:09;98446.00;;;16.30
8362;BMP180;4218;48.326;14.304;2023-07-31T06:12:35;98450.00;;;16.40
8362;BMP180;4218;48.326;14.304;2023-07-31T06:15:04;98449.00;;;16.60
8362;BMP180;4218;48.326;14.304;2023-07-31T06:17:29;98446.00;;;16.60
8362;BMP180;4218;48.326;14.304;2023-07-31T06:19:56;98451.00;;;16.70
8362;BMP180;4218;48.326;14.304;2023-07-31T06:22:22;98446.00;;;17.10
8362;BMP180;4218;48.326;14.304;2023-07-31T06:24:48;98450.00;;;17.10
8362;BMP180;4218;48.326;14.304;2023-07-31T06:27:15;98440.00;;;17.40
8362;BMP180;4218;48.326;14.304;2023-07-31T06:29:42;98439.00;;;17.60
8362;BMP180;4218;48.326;14.304;2023-07-31T06:32:07;98445.00;;;17.70
8362;BMP180;4218;48.326;14.304;2023-07-31T06:34:33;98434.00;;;17.90
8362;BMP180;4218;48.326;14.304;2023-07-31T06:36:59;98442.00;;;17.90
8362;BMP180;4218;48.326;14.304;2023-07-31T06:39:24;98444.00;;;18.10
8362;BMP180;4218;48.326;14.304;2023-07-31T06:41:53;98437.00;;;17.90
8362;BMP180;4218;48.326;14.304;2023-07-31T06:44:19;98447.00;;;18.10
8362;BMP180;4218;48.326;14.304;2023-07-31T06:46:45;98440.00;;;18.20
8362;BMP180;4218;48.326;14.304;2023-07-31T06:49:10;98435.00;;;18.30
8362;BMP180;4218;48.326;14.304;2023-07-31T06:51:36;98437.00;;;18.40
8362;BMP180;4218;48.326;14.304;2023-07-31T06:54:04;98432.00;;;18.40
8362;BMP180;4218;48.326;14.304;2023-07-31T06:56:29;98436.00;;;18.40
8362;BMP180;4218;48.326;14.304;2023-07-31T06:58:55;98436.00;;;18.40
8362;BMP180;4218;48.326;14.304;2023-07-31T07:01:21;98437.00;;;18.50
8362;BMP180;4218;48.326;14.304;2023-07-31T07:03:46;98435.00;;;18.70
8362;BMP180;4218;48.326;14.304;2023-07-31T07:06:12;98432.00;;;19.20
8362;BMP180;4218;48.326;14.304;2023-07-31T07:08:37;98422.00;;;19.40
8362;BMP180;4218;48.326;14.304;2023-07-31T07:11:03;98426.00;;;19.80
8362;BMP180;4218;48.326;14.304;2023-07-31T07:13:28;98421.00;;;20.00
8362;BMP180;4218;48.326;14.304;2023-07-31T07:15:54;98426.00;;;19.90
8362;BMP180;4218;48.326;14.304;2023-07-31T07:18:19;98415.00;;;19.70
8362;BMP180;4218;48.326;14.304;2023-07-31T07:20:47;98424.00;;;19.90
8362;BMP180;4218;48.326;14.304;2023-07-31T07:23:12;98423.00;;;20.10
8362;BMP180;4218;48.326;14.304;2023-07-31T07:25:38;98416.00;;;20.30
8362;BMP180;4218;48.326;14.304;2023-07-31T07:28:04;98425.00;;;20.10
8362;BMP180;4218;48.326;14.304;2023-07-31T07:30:29;98430.00;;;20.10
8362;BMP180;4218;48.326;14.304;2023-07-31T07:32:54;98420.00;;;20.30
8362;BMP180;4218;48.326;14.304;2023-07-31T07:35:20;98431.00;;;20.00
8362;BMP180;4218;48.326;14.304;2023-07-31T07:37:48;98422.00;;;20.10
8362;BMP180;4218;48.326;14.304;2023-07-31T07:40:14;98426.00;;;20.20
8362;BMP180;4218;48.326;14.304;2023-07-31T07:42:39;98422.00;;;20.30
8362;BMP180;4218;48.326;14.304;2023-07-31T07:45:05;98423.00;;;20.50
8362;BMP180;4218;48.326;14.304;2023-07-31T07:47:30;98423.00;;;20.60
8362;BMP180;4218;48.326;14.304;2023-07-31T07:49:56;98415.00;;;20.70
8362;BMP180;4218;48.326;14.304;2023-07-31T07:52:21;98412.00;;;20.70
8362;BMP180;4218;48.326;14.304;2023-07-31T07:54:47;98416.00;;;20.60
8362;BMP180;4218;48.326;14.304;2023-07-31T07:57:12;98417.00;;;20.90
8362;BMP180;4218;48.326;14.304;2023-07-31T07:59:37;98422.00;;;20.70
8362;BMP180;4218;48.326;14.304;2023-07-31T08:02:03;98424.00;;;20.50
8362;BMP180;4218;48.326;14.304;2023-07-31T08:04:28;98417.00;;;20.40
8362;BMP180;4218;48.326;14.304;2023-07-31T08:06:54;98420.00;;;20.50
8362;BMP180;4218;48.326;14.304;2023-07-31T08:09:19;98411.00;;;20.60
8362;BMP180;4218;48.326;14.304;2023-07-31T08:11:44;98414.00;;;20.50
8362;BMP180;4218;48.326;14.304;2023-07-31T08:14:10;98417.00;;;20.50
8362;BMP180;4218;48.326;14.304;2023-07-31T08:16:35;98416.00;;;20.70
8362;BMP180;4218;48.326;14.304;2023-07-31T08:19:04;98416.00;;;20.90
8362;BMP180;4218;48.326;14.304;2023-07-31T08:21:32;98403.00;;;20.60
8362;BMP180;4218;48.326;14.304;2023-07-31T08:23:57;98416.00;;;20.70
8362;BMP180;4218;48.326;14.304;2023-07-31T08:26:23;98413.00;;;21.00
8362;BMP180;4218;48.326;14.304;2023-07-31T08:28:48;98407.00;;;21.40
8362;BMP180;4218;48.326;14.304;2023-07-31T08:31:14;98409.00;;;21.30
8362;BMP180;4218;48.326;14.304;2023-07-31T08:33:40;98418.00;;;21.30
8362;BMP180;4218;48.326;14.304;2023-07-31T08:36:05;98419.00;;;21.40
8362;BMP180;4218;48.326;14.304;2023-07-31T08:38:31;98413.00;;;21.50
8362;BMP180;4218;48.326;14.304;2023-07-31T08:40:57;98415.00;;;21.30
8362;BMP180;4218;48.326;14.304;2023-07-31T08:43:25;98407.00;;;21.10
8362;BMP180;4218;48.326;14.304;2023-07-31T08:45:51;98411.00;;;21.10
8362;BMP180;4218;48.326;14.304;2023-07-31T08:48:17;98402.00;;;21.30
8362;BMP180;4218;48.326;14.304;2023-07-31T08:50:43;98398.00;;;21.30
8362;BMP180;4218;48.326;14.304;2023-07-31T08:53:11;98406.00;;;21.30
8362;BMP180;4218;48.326;14.304;2023-07-31T08:55:38;98400.00;;;21.40
8362;BMP180;4218;48.326;14.304;2023-07-31T08:58:04;98397.00;;;21.50
8362;BMP180;4218;48.326;14.304;2023-07-31T09:00:31;98395.00;;;21.70
8362;BMP180;4218;48.326;14.304;2023-07-31T09:03:08;98396.00;;;21.70
8362;BMP180;4218;48.326;14.304;2023-07-31T09:05:35;98395.00;;;21.70
8362;BMP180;4218;48.326;14.304;2023-07-31T09:08:02;98392.00;;;21.80
8362;BMP180;4218;48.326;14.304;2023-07-31T09:10:29;98388.00;;;21.80
8362;BMP180;4218;48.326;14.304;2023-07-31T09:12:55;98394.00;;;21.90
8362;BMP180;4218;48.326;14.304;2023-07-31T09:15:21;98391.00;;;21.50
8362;BMP180;4218;48.326;14.304;2023-07-31T09:17:47;98384.00;;;21.50
8362;BMP180;4218;48.326;14.304;2023-07-31T09:20:16;98383.00;;;21.70
8362;BMP180;4218;48.326;14.304;2023-07-31T09:22:42;98388.00;;;22.00
8362;BMP180;4218;48.326;14.304;2023-07-31T09:25:19;98376.00;;;22.10
8362;BMP180;4218;48.326;14.304;2023-07-31T09:27:48;98383.00;;;22.20
8362;BMP180;4218;48.326;14.304;2023-07-31T09:30:15;98374.00;;;22.20
8362;BMP180;4218;48.326;14.304;2023-07-31T09:32:40;98371.00;;;22.20
8362;BMP180;4218;48.326;14.304;2023-07-31T09:35:33;98373.00;;;21.90
8362;BMP180;4218;48.326;14.304;2023-07-31T09:38:02;98369.00;;;21.80
8362;BMP180;4218;48.326;14.304;2023-07-31T09:40:29;98375.00;;;21.90
8362;BMP180;4218;48.326;14.304;2023-07-31T09:43:00;98367.00;;;22.10
8362;BMP180;4218;48.326;14.304;2023-07-31T09:45:26;98356.00;;;22.40
8362;BMP180;4218;48.326;14.304;2023-07-31T09:47:52;98367.00;;;22.50
8362;BMP180;4218;48.326;14.304;2023-07-31T09:50:19;98371.00;;;22.40
8362;BMP180;4218;48.326;14.304;2023-07-31T09:52:45;98359.00;;;22.40
8362;BMP180;4218;48.326;14.304;2023-07-31T09:55:10;98354.00;;;22.40
8362;BMP180;4218;48.326;14.304;2023-07-31T09:57:40;98362.00;;;22.40
8362;BMP180;4218;48.326;14.304;2023-07-31T10:00:07;98355.00;;;22.70
8362;BMP180;4218;48.326;14.304;2023-07-31T10:02:34;98359.00;;;22.90
8362;BMP180;4218;48.326;14.304;2023-07-31T10:05:02;98351.00;;;22.80
8362;BMP180;4218;48.326;14.304;2023-07-31T10:07:30;98346.00;;;22.90
8362;BMP180;4218;48.326;14.304;2023-07-31T10:09:57;98347.00;;;23.10
8362;BMP180;4218;48.326;14.304;2023-07-31T10:12:26;98334.00;;;23.30
8362;BMP180;4218;48.326;14.304;2023-07-31T10:14:54;98337.00;;;23.20
8362;BMP180;4218;48.326;14.304;2023-07-31T10:17:21;98338.00;;;23.20
8362;BMP180;4218;48.326;14.304;2023-07-31T10:19:48;98325.00;;;23.30
8362;BMP180;4218;48.326;14.304;2023-07-31T10:22:14;98330.00;;;23.30
8362;BMP180;4218;48.326;14.304;2023-07-31T10:24:42;98324.00;;;23.20
8362;BMP180;4218;48.326;14.304;2023-07-31T10:27:08;98319.00;;;23.30
8362;BMP180;4218;48.326;14.304;2023-07-31T10:29:36;98317.00;;;23.50
8362;BMP180;4218;48.326;14.304;2023-07-31T10:32:02;98303.00;;;23.90
8362;BMP180;4218;48.326;14.304;2023-07-31T10:34:28;98314.00;;;24.20
8362;BMP180;4218;48.326;14.304;2023-07-31T10:37:23;98310.00;;;24.20
8362;BMP180;4218;48.326;14.304;2023-07-31T10:40:00;98300.00;;;23.60
8362;BMP180;4218;48.326;14.304;2023-07-31T10:42:37;98298.00;;;24.10
8362;BMP180;4218;48.326;14.304;2023-07-31T10:45:10;98301.00;;;24.30
8362;BMP180;4218;48.326;14.304;2023-07-31T10:47:45;98296.00;;;24.40
8362;BMP180;4218;48.326;14.304;2023-07-31T10:50:22;98294.00;;;24.70
8362;BMP180;4218;48.326;14.304;2023-07-31T10:52:53;98291.00;;;24.80
8362;BMP180;4218;48.326;14.304;2023-07-31T10:55:41;98283.00;;;24.80
8362;BMP180;4218;48.326;14.304;2023-07-31T10:58:12;98280.00;;;24.60
8362;BMP180;4218;48.326;14.304;2023-07-31T11:00:43;98282.00;;;24.80
8362;BMP180;4218;48.326;14.304;2023-07-31T11:10:44;98275.00;;;24.60
8362;BMP180;4218;48.326;14.304;2023-07-31T11:13:10;98278.00;;;24.70
8362;BMP180;4218;48.326;14.304;2023-07-31T11:15:36;98263.00;;;24.70
8362;BMP180;4218;48.326;14.304;2023-07-31T11:18:02;98259.00;;;24.80
8362;BMP180;4218;48.326;14.304;2023-07-31T11:20:32;98258.00;;;24.80
8362;BMP180;4218;48.326;14.304;2023-07-31T11:23:02;98256.00;;;24.50
8362;BMP180;4218;48.326;14.304;2023-07-31T11:25:31;98255.00;;;24.40
8362;BMP180;4218;48.326;14.304;2023-07-31T11:28:14;98254.00;;;24.60
8362;BMP180;4218;48.326;14.304;2023-07-31T11:30:41;98257.00;;;24.60
8362;BMP180;4218;48.326;14.304;2023-07-31T11:33:08;98257.00;;;24.50
8362;BMP180;4218;48.326;14.304;2023-07-31T11:35:44;98261.00;;;24.50
8362;BMP180;4218;48.326;14.304;2023-07-31T11:38:12;98252.00;;;24.70
8362;BMP180;4218;48.326;14.304;2023-07-31T11:40:44;98251.00;;;24.70
8362;BMP180;4218;48.326;14.304;2023-07-31T11:43:10;98239.00;;;24.10
8362;BMP180;4218;48.326;14.304;2023-07-31T11:45:41;98240.00;;;24.60
8362;BMP180;4218;48.326;14.304;2023-07-31T11:48:07;98238.00;;;24.70
8362;BMP180;4218;48.326;14.304;2023-07-31T11:50:33;98233.00;;;24.40
8362;BMP180;4218;48.326;14.304;2023-07-31T11:53:06;98237.00;;;24.70
8362;BMP180;4218;48.326;14.304;2023-07-31T11:55:33;98236.00;;;24.80
8362;BMP180;4218;48.326;14.304;2023-07-31T11:57:59;98231.00;;;24.50
8362;BMP180;4218;48.326;14.304;2023-07-31T12:00:25;98231.00;;;24.40
8362;BMP180;4218;48.326;14.304;2023-07-31T12:02:51;98233.00;;;24.50
8362;BMP180;4218;48.326;14.304;2023-07-31T12:05:17;98229.00;;;24.60
8362;BMP180;4218;48.326;14.304;2023-07-31T12:07:46;98231.00;;;24.80
8362;BMP180;4218;48.326;14.304;2023-07-31T12:10:26;98223.00;;;24.70
8362;BMP180;4218;48.326;14.304;2023-07-31T12:13:03;98227.00;;;24.70
8362;BMP180;4218;48.326;14.304;2023-07-31T12:15:35;98226.00;;;24.70
8362;BMP180;4218;48.326;14.304;2023-07-31T12:18:12;98214.00;;;25.00
8362;BMP180;4218;48.326;14.304;2023-07-31T12:20:43;98200.00;;;25.40
8362;BMP180;4218;48.326;14.304;2023-07-31T12:23:19;98197.00;;;25.30
8362;BMP180;4218;48.326;14.304;2023-07-31T12:26:13;98197.00;;;25.30
8362;BMP180;4218;48.326;14.304;2023-07-31T12:28:49;98198.00;;;25.20
8362;BMP180;4218;48.326;14.304;2023-07-31T12:31:16;98185.00;;;24.80
8362;BMP180;4218;48.326;14.304;2023-07-31T12:33:43;98186.00;;;25.00
8362;BMP180;4218;48.326;14.304;2023-07-31T12:38:35;98182.00;;;25.30
8362;BMP180;4218;48.326;14.304;2023-07-31T12:41:00;98172.00;;;25.40
8362;BMP180;4218;48.326;14.304;2023-07-31T12:43:26;98161.00;;;25.30
8362;BMP180;4218;48.326;14.304;2023-07-31T12:45:54;98157.00;;;25.40
8362;BMP180;4218;48.326;14.304;2023-07-31T12:48:19;98155.00;;;25.40
8362;BMP180;4218;48.326;14.304;2023-07-31T12:50:45;98144.00;;;25.40
8362;BMP180;4218;48.326;14.304;2023-07-31T12:53:10;98147.00;;;25.50
8362;BMP180;4218;48.326;14.304;2023-07-31T12:55:36;98148.00;;;25.40
8362;BMP180;4218;48.326;14.304;2023-07-31T12:58:02;98150.00;;;25.20
8362;BMP180;4218;48.326;14.304;2023-07-31T13:00:28;98143.00;;;24.50
8362;BMP180;4218;48.326;14.304;2023-07-31T13:02:53;98148.00;;;24.70
8362;BMP180;4218;48.326;14.304;2023-07-31T13:05:18;98146.00;;;24.70
8362;BMP180;4218;48.326;14.304;2023-07-31T13:07:46;98133.00;;;24.70
8362;BMP180;4218;48.326;14.304;2023-07-31T13:10:11;98128.00;;;24.60
8362;BMP180;4218;48.326;14.304;2023-07-31T13:12:37;98124.00;;;24.80
8362;BMP180;4218;48.326;14.304;2023-07-31T13:15:06;98114.00;;;25.00
8362;BMP180;4218;48.326;14.304;2023-07-31T13:17:32;98121.00;;;25.00
8362;BMP180;4218;48.326;14.304;2023-07-31T13:19:58;98118.00;;;24.90
8362;BMP180;4218;48.326;14.304;2023-07-31T13:22:23;98117.00;;;24.70
8362;BMP180;4218;48.326;14.304;2023-07-31T13:24:49;98111.00;;;25.00
8362;BMP180;4218;48.326;14.304;2023-07-31T13:27:14;98101.00;;;24.70
8362;BMP180;4218;48.326;14.304;2023-07-31T13:29:44;98092.00;;;24.70
8362;BMP180;4218;48.326;14.304;2023-07-31T13:32:09;98098.00;;;25.10
8362;BMP180;4218;48.326;14.304;2023-07-31T13:34:35;98093.00;;;25.20
8362;BMP180;4218;48.326;14.304;2023-07-31T13:37:00;98089.00;;;25.30
8362;BMP180;4218;48.326;14.304;2023-07-31T13:39:25;98089.00;;;25.20
8362;BMP180;4218;48.326;14.304;2023-07-31T13:41:51;98092.00;;;25.40
8362;BMP180;4218;48.326;14.304;2023-07-31T13:44:16;98093.00;;;25.40
8362;BMP180;4218;48.326;14.304;2023-07-31T13:46:41;98088.00;;;25.40
8362;BMP180;4218;48.326;14.304;2023-07-31T13:49:07;98079.00;;;25.40
8362;BMP180;4218;48.326;14.304;2023-07-31T13:51:32;98075.00;;;25.20
8362;BMP180;4218;48.326;14.304;2023-07-31T13:53:57;98071.00;;;25.20
8362;BMP180;4218;48.326;14.304;2023-07-31T13:56:23;98068.00;;;25.20
8362;BMP180;4218;48.326;14.304;2023-07-31T13:58:48;98068.00;;;25.40
8362;BMP180;4218;48.326;14.304;2023-07-31T14:01:14;98058.00;;;25.50
8362;BMP180;4218;48.326;14.304;2023-07-31T14:03:39;98061.00;;;25.40
8362;BMP180;4218;48.326;14.304;2023-07-31T14:06:04;98053.00;;;25.50
8362;BMP180;4218;48.326;14.304;2023-07-31T14:08:33;98052.00;;;25.40
8362;BMP180;4218;48.326;14.304;2023-07-31T14:10:58;98059.00;;;25.40
8362;BMP180;4218;48.326;14.304;2023-07-31T14:13:23;98055.00;;;25.20
8362;BMP180;4218;48.326;14.304;2023-07-31T14:15:49;98062.00;;;25.10
8362;BMP180;4218;48.326;14.304;2023-07-31T14:18:14;98058.00;;;25.10
8362;BMP180;4218;48.326;14.304;2023-07-31T14:20:40;98059.00;;;25.40
8362;BMP180;4218;48.326;14.304;2023-07-31T14:23:05;98050.00;;;25.40
8362;BMP180;4218;48.326;14.304;2023-07-31T14:25:31;98049.00;;;25.10
8362;BMP180;4218;48.326;14.304;2023-07-31T14:27:56;98042.00;;;25.20
8362;BMP180;4218;48.326;14.304;2023-07-31T14:30:21;98042.00;;;25.30
8362;BMP180;4218;48.326;14.304;2023-07-31T14:32:47;98042.00;;;25.20